sensor_id;sensor_type;location;lat;lon;timestamp;P1;durP1;ratioP1;P2;durP2;ratioP2
12908;SDS011;6522;49.622;6.126;2023-04-06T00:01:10;19.52;;;17.83;;
12908;SDS011;6522;49.622;6.126;2023-04-06T00:03:56;20.45;;;18.67;;
12908;SDS011;6522;49.622;6.126;2023-04-06T00:06:43;18.58;;;16.87;;
12908;SDS011;6522;49.622;6.126;2023-04-06T00:09:30;18.05;;;16.55;;
12908;SDS011;6522;49.622;6.126;2023-04-06T00:12:16;19.12;;;17.50;;
12908;SDS011;6522;49.622;6.126;2023-04-06T00:15:03;18.45;;;16.85;;
12908;SDS011;6522;49.622;6.126;2023-04-06T00:17:50;20.48;;;18.35;;
12908;SDS011;6522;49.622;6.126;2023-04-06T00:20:36;16.42;;;13.75;;
12908;SDS011;6522;49.622;6.126;2023-04-06T00:23:23;15.02;;;13.62;;
12908;SDS011;6522;49.622;6.126;2023-04-06T00:26:10;18.25;;;16.45;;
12908;SDS011;6522;49.622;6.126;2023-04-06T00:28:56;17.40;;;15.70;;
12908;SDS011;6522;49.622;6.126;2023-04-06T00:31:43;17.40;;;15.90;;
12908;SDS011;6522;49.622;6.126;2023-04-06T00:34:30;19.02;;;17.40;;
12908;SDS011;6522;49.622;6.126;2023-04-06T00:37:17;18.45;;;16.73;;
12908;SDS011;6522;49.622;6.126;2023-04-06T00:40:04;18.67;;;17.08;;
12908;SDS011;6522;49.622;6.126;2023-04-06T00:42:50;17.25;;;15.75;;
12908;SDS011;6522;49.622;6.126;2023-04-06T00:45:37;17.08;;;15.48;;
12908;SDS011;6522;49.622;6.126;2023-04-06T00:48:24;15.00;;;13.60;;
12908;SDS011;6522;49.622;6.126;2023-04-06T00:51:11;15.80;;;14.35;;
12908;SDS011;6522;49.622;6.126;2023-04-06T00:53:58;19.02;;;17.48;;
12908;SDS011;6522;49.622;6.126;2023-04-06T00:56:45;20.10;;;18.40;;
12908;SDS011;6522;49.622;6.126;2023-04-06T00:59:32;18.70;;;16.80;;
12908;SDS011;6522;49.622;6.126;2023-04-06T01:02:19;15.53;;;13.97;;
12908;SDS011;6522;49.622;6.126;2023-04-06T01:05:06;15.70;;;14.20;;
12908;SDS011;6522;49.622;6.126;2023-04-06T01:07:53;15.10;;;13.70;;
12908;SDS011;6522;49.622;6.126;2023-04-06T01:10:40;17.40;;;15.70;;
12908;SDS011;6522;49.622;6.126;2023-04-06T01:13:27;16.50;;;14.98;;
12908;SDS011;6522;49.622;6.126;2023-04-06T01:16:14;16.43;;;14.73;;
12908;SDS011;6522;49.622;6.126;2023-04-06T01:19:01;15.32;;;13.93;;
12908;SDS011;6522;49.622;6.126;2023-04-06T01:21:47;15.85;;;14.35;;
12908;SDS011;6522;49.622;6.126;2023-04-06T01:24:34;15.32;;;13.93;;
12908;SDS011;6522;49.622;6.126;2023-04-06T01:27:22;18.62;;;17.23;;
12908;SDS011;6522;49.622;6.126;2023-04-06T01:30:08;15.82;;;14.32;;
12908;SDS011;6522;49.622;6.126;2023-04-06T01:32:55;16.60;;;14.95;;
12908;SDS011;6522;49.622;6.126;2023-04-06T01:35:41;16.85;;;15.32;;
12908;SDS011;6522;49.622;6.126;2023-04-06T01:38:28;17.08;;;15.77;;
12908;SDS011;6522;49.622;6.126;2023-04-06T01:41:15;15.50;;;14.00;;
12908;SDS011;6522;49.622;6.126;2023-04-06T01:44:01;14.80;;;13.15;;
12908;SDS011;6522;49.622;6.126;2023-04-06T01:46:48;17.45;;;15.95;;
12908;SDS011;6522;49.622;6.126;2023-04-06T01:49:35;15.93;;;14.23;;
12908;SDS011;6522;49.622;6.126;2023-04-06T01:52:22;16.60;;;15.27;;
12908;SDS011;6522;49.622;6.126;2023-04-06T01:55:09;17.40;;;16.00;;
12908;SDS011;6522;49.622;6.126;2023-04-06T01:57:55;18.58;;;17.05;;
12908;SDS011;6522;49.622;6.126;2023-04-06T02:00:42;17.98;;;16.35;;
12908;SDS011;6522;49.622;6.126;2023-04-06T02:03:29;20.10;;;18.40;;
12908;SDS011;6522;49.622;6.126;2023-04-06T02:06:15;18.83;;;17.17;;
12908;SDS011;6522;49.622;6.126;2023-04-06T02:09:02;18.00;;;16.30;;
12908;SDS011;6522;49.622;6.126;2023-04-06T02:11:49;17.23;;;15.63;;
12908;SDS011;6522;49.622;6.126;2023-04-06T02:14:36;18.55;;;16.90;;
12908;SDS011;6522;49.622;6.126;2023-04-06T02:17:23;18.10;;;16.62;;
12908;SDS011;6522;49.622;6.126;2023-04-06T02:20:09;17.23;;;15.57;;
12908;SDS011;6522;49.622;6.126;2023-04-06T02:22:58;19.40;;;17.80;;
12908;SDS011;6522;49.622;6.126;2023-04-06T02:25:43;23.05;;;19.95;;
12908;SDS011;6522;49.622;6.126;2023-04-06T02:28:30;16.35;;;14.87;;
12908;SDS011;6522;49.622;6.126;2023-04-06T02:31:16;15.40;;;14.10;;
12908;SDS011;6522;49.622;6.126;2023-04-06T02:34:03;14.13;;;11.07;;
12908;SDS011;6522;49.622;6.126;2023-04-06T02:36:49;15.38;;;13.98;;
12908;SDS011;6522;49.622;6.126;2023-04-06T02:39:36;15.98;;;14.52;;
12908;SDS011;6522;49.622;6.126;2023-04-06T02:42:22;17.87;;;16.27;;
12908;SDS011;6522;49.622;6.126;2023-04-06T02:45:09;22.83;;;21.12;;
12908;SDS011;6522;49.622;6.126;2023-04-06T02:47:56;21.67;;;19.80;;
12908;SDS011;6522;49.622;6.126;2023-04-06T02:50:42;18.12;;;16.62;;
12908;SDS011;6522;49.622;6.126;2023-04-06T02:53:29;18.77;;;17.27;;
12908;SDS011;6522;49.622;6.126;2023-04-06T02:56:16;19.15;;;17.50;;
12908;SDS011;6522;49.622;6.126;2023-04-06T02:59:02;19.35;;;17.83;;
12908;SDS011;6522;49.622;6.126;2023-04-06T03:01:49;18.83;;;17.02;;
12908;SDS011;6522;49.622;6.126;2023-04-06T03:04:35;16.85;;;15.55;;
12908;SDS011;6522;49.622;6.126;2023-04-06T03:07:22;18.02;;;16.30;;
12908;SDS011;6522;49.622;6.126;2023-04-06T03:10:09;17.52;;;15.90;;
12908;SDS011;6522;49.622;6.126;2023-04-06T03:12:55;18.92;;;17.08;;
12908;SDS011;6522;49.622;6.126;2023-04-06T03:15:42;18.25;;;16.42;;
12908;SDS011;6522;49.622;6.126;2023-04-06T03:18:29;19.95;;;18.25;;
12908;SDS011;6522;49.622;6.126;2023-04-06T03:21:15;18.40;;;16.98;;
12908;SDS011;6522;49.622;6.126;2023-04-06T03:24:02;15.38;;;13.93;;
12908;SDS011;6522;49.622;6.126;2023-04-06T03:26:49;18.98;;;17.27;;
12908;SDS011;6522;49.622;6.126;2023-04-06T03:29:35;18.95;;;17.23;;
12908;SDS011;6522;49.622;6.126;2023-04-06T03:32:22;18.80;;;17.35;;
12908;SDS011;6522;49.622;6.126;2023-04-06T03:35:09;18.02;;;16.33;;
12908;SDS011;6522;49.622;6.126;2023-04-06T03:37:56;18.77;;;17.05;;
12908;SDS011;6522;49.622;6.126;2023-04-06T03:40:43;17.73;;;16.17;;
12908;SDS011;6522;49.622;6.126;2023-04-06T03:43:30;18.95;;;17.35;;
12908;SDS011;6522;49.622;6.126;2023-04-06T03:46:17;17.87;;;16.25;;
12908;SDS011;6522;49.622;6.126;2023-04-06T03:49:04;16.45;;;14.93;;
12908;SDS011;6522;49.622;6.126;2023-04-06T03:51:50;19.25;;;17.15;;
12908;SDS011;6522;49.622;6.126;2023-04-06T03:54:37;18.17;;;16.35;;
12908;SDS011;6522;49.622;6.126;2023-04-06T03:57:25;18.67;;;16.85;;
12908;SDS011;6522;49.622;6.126;2023-04-06T04:00:12;19.98;;;18.27;;
12908;SDS011;6522;49.622;6.126;2023-04-06T04:02:59;20.05;;;18.25;;
12908;SDS011;6522;49.622;6.126;2023-04-06T04:05:45;20.90;;;19.30;;
12908;SDS011;6522;49.622;6.126;2023-04-06T04:08:32;22.05;;;20.08;;
12908;SDS011;6522;49.622;6.126;2023-04-06T04:11:19;18.25;;;16.85;;
12908;SDS011;6522;49.622;6.126;2023-04-06T04:14:05;16.85;;;15.25;;
12908;SDS011;6522;49.622;6.126;2023-04-06T04:16:52;20.55;;;18.65;;
12908;SDS011;6522;49.622;6.126;2023-04-06T04:19:39;20.45;;;18.45;;
12908;SDS011;6522;49.622;6.126;2023-04-06T04:22:26;18.70;;;17.20;;
12908;SDS011;6522;49.622;6.126;2023-04-06T04:25:12;21.60;;;19.60;;
12908;SDS011;6522;49.622;6.126;2023-04-06T04:27:59;20.60;;;18.23;;
12908;SDS011;6522;49.622;6.126;2023-04-06T04:30:46;21.27;;;19.48;;
12908;SDS011;6522;49.622;6.126;2023-04-06T04:33:33;20.00;;;18.30;;
12908;SDS011;6522;49.622;6.126;2023-04-06T04:36:20;22.37;;;20.30;;
12908;SDS011;6522;49.622;6.126;2023-04-06T04:39:07;22.45;;;20.45;;
12908;SDS011;6522;49.622;6.126;2023-04-06T04:41:54;22.35;;;20.40;;
12908;SDS011;6522;49.622;6.126;2023-04-06T04:44:41;20.85;;;18.90;;
12908;SDS011;6522;49.622;6.126;2023-04-06T04:47:28;22.20;;;20.45;;
12908;SDS011;6522;49.622;6.126;2023-04-06T04:50:14;19.33;;;17.52;;
12908;SDS011;6522;49.622;6.126;2023-04-06T04:53:01;21.55;;;19.95;;
12908;SDS011;6522;49.622;6.126;2023-04-06T04:55:48;22.55;;;20.65;;
12908;SDS011;6522;49.622;6.126;2023-04-06T04:58:35;22.20;;;20.15;;
12908;SDS011;6522;49.622;6.126;2023-04-06T05:01:22;23.80;;;21.52;;
12908;SDS011;6522;49.622;6.126;2023-04-06T05:04:09;23.95;;;21.75;;
12908;SDS011;6522;49.622;6.126;2023-04-06T05:07:05;26.73;;;24.15;;
12908;SDS011;6522;49.622;6.126;2023-04-06T05:09:48;23.10;;;21.02;;
12908;SDS011;6522;49.622;6.126;2023-04-06T05:12:35;23.38;;;21.27;;
12908;SDS011;6522;49.622;6.126;2023-04-06T05:15:22;25.08;;;22.77;;
12908;SDS011;6522;49.622;6.126;2023-04-06T05:18:09;22.80;;;20.65;;
12908;SDS011;6522;49.622;6.126;2023-04-06T05:20:56;22.67;;;20.67;;
12908;SDS011;6522;49.622;6.126;2023-04-06T05:23:42;22.73;;;20.62;;
12908;SDS011;6522;49.622;6.126;2023-04-06T05:26:29;22.83;;;20.83;;
12908;SDS011;6522;49.622;6.126;2023-04-06T05:29:16;22.25;;;19.98;;
12908;SDS011;6522;49.622;6.126;2023-04-06T05:32:02;22.40;;;20.45;;
12908;SDS011;6522;49.622;6.126;2023-04-06T05:34:49;24.15;;;21.95;;
12908;SDS011;6522;49.622;6.126;2023-04-06T05:37:35;23.02;;;20.83;;
12908;SDS011;6522;49.622;6.126;2023-04-06T05:40:22;21.55;;;19.48;;
12908;SDS011;6522;49.622;6.126;2023-04-06T05:43:09;21.90;;;19.77;;
12908;SDS011;6522;49.622;6.126;2023-04-06T05:45:56;21.85;;;19.95;;
12908;SDS011;6522;49.622;6.126;2023-04-06T05:48:42;22.27;;;19.98;;
12908;SDS011;6522;49.622;6.126;2023-04-06T05:51:30;24.15;;;21.85;;
12908;SDS011;6522;49.622;6.126;2023-04-06T05:54:16;24.08;;;21.80;;
12908;SDS011;6522;49.622;6.126;2023-04-06T05:57:03;24.37;;;22.35;;
12908;SDS011;6522;49.622;6.126;2023-04-06T05:59:50;24.33;;;22.13;;
12908;SDS011;6522;49.622;6.126;2023-04-06T06:02:37;25.25;;;22.65;;
12908;SDS011;6522;49.622;6.126;2023-04-06T06:05:24;24.58;;;22.37;;
12908;SDS011;6522;49.622;6.126;2023-04-06T06:08:10;22.00;;;20.10;;
12908;SDS011;6522;49.622;6.126;2023-04-06T06:10:57;24.45;;;22.25;;
12908;SDS011;6522;49.622;6.126;2023-04-06T06:13:44;23.58;;;21.45;;
12908;SDS011;6522;49.622;6.126;2023-04-06T06:16:31;23.58;;;21.48;;
12908;SDS011;6522;49.622;6.126;2023-04-06T06:19:17;23.62;;;21.65;;
12908;SDS011;6522;49.622;6.126;2023-04-06T06:22:04;26.65;;;21.55;;
12908;SDS011;6522;49.622;6.126;2023-04-06T06:24:51;25.10;;;23.05;;
12908;SDS011;6522;49.622;6.126;2023-04-06T06:27:38;22.10;;;20.27;;
12908;SDS011;6522;49.622;6.126;2023-04-06T06:30:25;22.67;;;20.88;;
12908;SDS011;6522;49.622;6.126;2023-04-06T06:33:11;24.52;;;22.40;;
12908;SDS011;6522;49.622;6.126;2023-04-06T06:35:59;25.60;;;23.35;;
12908;SDS011;6522;49.622;6.126;2023-04-06T06:38:45;23.60;;;21.67;;
12908;SDS011;6522;49.622;6.126;2023-04-06T06:41:32;23.38;;;21.33;;
12908;SDS011;6522;49.622;6.126;2023-04-06T06:44:19;25.23;;;22.62;;
12908;SDS011;6522;49.622;6.126;2023-04-06T06:47:06;23.20;;;21.42;;
12908;SDS011;6522;49.622;6.126;2023-04-06T06:49:52;23.85;;;21.65;;
12908;SDS011;6522;49.622;6.126;2023-04-06T06:52:39;20.73;;;18.83;;
12908;SDS011;6522;49.622;6.126;2023-04-06T06:55:26;25.23;;;22.98;;
12908;SDS011;6522;49.622;6.126;2023-04-06T06:58:13;23.30;;;21.40;;
12908;SDS011;6522;49.622;6.126;2023-04-06T07:01:00;23.00;;;20.80;;
12908;SDS011;6522;49.622;6.126;2023-04-06T07:03:46;22.73;;;20.92;;
12908;SDS011;6522;49.622;6.126;2023-04-06T07:06:34;21.98;;;19.95;;
12908;SDS011;6522;49.622;6.126;2023-04-06T07:09:20;23.73;;;21.67;;
12908;SDS011;6522;49.622;6.126;2023-04-06T07:12:06;23.17;;;21.20;;
12908;SDS011;6522;49.622;6.126;2023-04-06T07:14:53;23.48;;;21.58;;
12908;SDS011;6522;49.622;6.126;2023-04-06T07:17:40;22.20;;;20.20;;
12908;SDS011;6522;49.622;6.126;2023-04-06T07:20:26;24.75;;;22.75;;
12908;SDS011;6522;49.622;6.126;2023-04-06T07:23:13;24.50;;;22.55;;
12908;SDS011;6522;49.622;6.126;2023-04-06T07:26:01;23.92;;;22.13;;
12908;SDS011;6522;49.622;6.126;2023-04-06T07:28:48;23.95;;;22.15;;
12908;SDS011;6522;49.622;6.126;2023-04-06T07:31:34;23.42;;;21.33;;
12908;SDS011;6522;49.622;6.126;2023-04-06T07:34:21;23.60;;;21.52;;
12908;SDS011;6522;49.622;6.126;2023-04-06T07:37:08;22.77;;;20.42;;
12908;SDS011;6522;49.622;6.126;2023-04-06T07:39:55;22.98;;;21.37;;
12908;SDS011;6522;49.622;6.126;2023-04-06T07:42:41;25.60;;;23.62;;
12908;SDS011;6522;49.622;6.126;2023-04-06T07:45:28;24.25;;;22.35;;
12908;SDS011;6522;49.622;6.126;2023-04-06T07:48:15;22.42;;;20.52;;
12908;SDS011;6522;49.622;6.126;2023-04-06T07:51:02;25.15;;;23.33;;
12908;SDS011;6522;49.622;6.126;2023-04-06T07:53:52;26.50;;;24.35;;
12908;SDS011;6522;49.622;6.126;2023-04-06T07:56:39;26.85;;;24.95;;
12908;SDS011;6522;49.622;6.126;2023-04-06T07:59:25;27.17;;;25.37;;
12908;SDS011;6522;49.622;6.126;2023-04-06T08:02:12;28.42;;;26.27;;
12908;SDS011;6522;49.622;6.126;2023-04-06T08:04:59;26.48;;;24.37;;
12908;SDS011;6522;49.622;6.126;2023-04-06T08:07:46;24.85;;;23.15;;
12908;SDS011;6522;49.622;6.126;2023-04-06T08:10:32;25.50;;;23.80;;
12908;SDS011;6522;49.622;6.126;2023-04-06T08:13:19;24.90;;;22.75;;
12908;SDS011;6522;49.622;6.126;2023-04-06T08:16:06;26.65;;;24.70;;
12908;SDS011;6522;49.622;6.126;2023-04-06T08:18:52;25.10;;;23.00;;
12908;SDS011;6522;49.622;6.126;2023-04-06T08:21:39;27.62;;;25.70;;
12908;SDS011;6522;49.622;6.126;2023-04-06T08:24:26;26.48;;;24.17;;
12908;SDS011;6522;49.622;6.126;2023-04-06T08:27:13;26.70;;;24.80;;
12908;SDS011;6522;49.622;6.126;2023-04-06T08:29:59;27.30;;;25.30;;
12908;SDS011;6522;49.622;6.126;2023-04-06T08:32:46;26.95;;;24.80;;
12908;SDS011;6522;49.622;6.126;2023-04-06T08:35:33;26.30;;;24.05;;
12908;SDS011;6522;49.622;6.126;2023-04-06T08:38:19;26.25;;;24.15;;
12908;SDS011;6522;49.622;6.126;2023-04-06T08:41:07;26.77;;;24.77;;
12908;SDS011;6522;49.622;6.126;2023-04-06T08:43:56;26.98;;;24.90;;
12908;SDS011;6522;49.622;6.126;2023-04-06T08:46:43;27.40;;;25.20;;
12908;SDS011;6522;49.622;6.126;2023-04-06T08:49:30;25.85;;;24.05;;
12908;SDS011;6522;49.622;6.126;2023-04-06T08:52:20;27.17;;;25.27;;
12908;SDS011;6522;49.622;6.126;2023-04-06T08:55:06;25.27;;;23.45;;
12908;SDS011;6522;49.622;6.126;2023-04-06T08:57:53;27.65;;;25.42;;
12908;SDS011;6522;49.622;6.126;2023-04-06T09:00:40;26.00;;;24.20;;
12908;SDS011;6522;49.622;6.126;2023-04-06T09:03:28;25.50;;;23.70;;
12908;SDS011;6522;49.622;6.126;2023-04-06T09:06:14;25.02;;;23.12;;
12908;SDS011;6522;49.622;6.126;2023-04-06T09:09:01;24.83;;;22.87;;
12908;SDS011;6522;49.622;6.126;2023-04-06T09:11:48;29.00;;;26.77;;
12908;SDS011;6522;49.622;6.126;2023-04-06T09:14:35;27.77;;;25.35;;
12908;SDS011;6522;49.622;6.126;2023-04-06T09:17:25;26.95;;;25.00;;
12908;SDS011;6522;49.622;6.126;2023-04-06T09:20:11;23.95;;;22.05;;
12908;SDS011;6522;49.622;6.126;2023-04-06T09:22:57;28.42;;;25.70;;
12908;SDS011;6522;49.622;6.126;2023-04-06T09:25:44;27.90;;;25.80;;
12908;SDS011;6522;49.622;6.126;2023-04-06T09:28:40;25.95;;;23.95;;
12908;SDS011;6522;49.622;6.126;2023-04-06T09:31:24;29.25;;;26.60;;
12908;SDS011;6522;49.622;6.126;2023-04-06T09:34:19;27.85;;;25.85;;
12908;SDS011;6522;49.622;6.126;2023-04-06T09:36:57;26.50;;;24.80;;
12908;SDS011;6522;49.622;6.126;2023-04-06T09:39:45;26.00;;;23.80;;
12908;SDS011;6522;49.622;6.126;2023-04-06T09:42:31;27.55;;;25.70;;
12908;SDS011;6522;49.622;6.126;2023-04-06T09:45:18;28.10;;;25.90;;
12908;SDS011;6522;49.622;6.126;2023-04-06T09:48:05;26.37;;;24.27;;
12908;SDS011;6522;49.622;6.126;2023-04-06T09:50:53;26.15;;;24.30;;
12908;SDS011;6522;49.622;6.126;2023-04-06T09:53:38;29.40;;;27.10;;
12908;SDS011;6522;49.622;6.126;2023-04-06T09:56:25;28.55;;;26.42;;
12908;SDS011;6522;49.622;6.126;2023-04-06T09:59:13;27.73;;;25.30;;
12908;SDS011;6522;49.622;6.126;2023-04-06T10:01:59;28.00;;;25.80;;
12908;SDS011;6522;49.622;6.126;2023-04-06T10:07:36;25.25;;;23.48;;
12908;SDS011;6522;49.622;6.126;2023-04-06T10:10:23;25.40;;;23.15;;
12908;SDS011;6522;49.622;6.126;2023-04-06T10:13:10;26.80;;;24.95;;
12908;SDS011;6522;49.622;6.126;2023-04-06T10:15:56;27.95;;;25.35;;
12908;SDS011;6522;49.622;6.126;2023-04-06T10:18:44;24.75;;;22.95;;
12908;SDS011;6522;49.622;6.126;2023-04-06T10:21:30;26.30;;;24.40;;
12908;SDS011;6522;49.622;6.126;2023-04-06T10:24:17;27.65;;;25.55;;
12908;SDS011;6522;49.622;6.126;2023-04-06T10:27:04;27.85;;;24.85;;
12908;SDS011;6522;49.622;6.126;2023-04-06T10:29:51;26.55;;;24.73;;
12908;SDS011;6522;49.622;6.126;2023-04-06T10:32:38;28.65;;;26.55;;
12908;SDS011;6522;49.622;6.126;2023-04-06T10:35:25;27.67;;;25.27;;
12908;SDS011;6522;49.622;6.126;2023-04-06T10:38:12;27.05;;;24.95;;
12908;SDS011;6522;49.622;6.126;2023-04-06T10:41:09;27.98;;;25.67;;
12908;SDS011;6522;49.622;6.126;2023-04-06T10:43:45;28.55;;;26.58;;
12908;SDS011;6522;49.622;6.126;2023-04-06T10:46:33;26.20;;;24.15;;
12908;SDS011;6522;49.622;6.126;2023-04-06T10:49:19;28.45;;;26.45;;
12908;SDS011;6522;49.622;6.126;2023-04-06T10:52:06;27.67;;;25.50;;
12908;SDS011;6522;49.622;6.126;2023-04-06T10:54:53;27.80;;;25.70;;
12908;SDS011;6522;49.622;6.126;2023-04-06T10:57:40;27.15;;;25.15;;
12908;SDS011;6522;49.622;6.126;2023-04-06T11:00:26;24.00;;;22.45;;
12908;SDS011;6522;49.622;6.126;2023-04-06T11:03:13;24.70;;;23.05;;
12908;SDS011;6522;49.622;6.126;2023-04-06T11:06:00;25.50;;;23.80;;
12908;SDS011;6522;49.622;6.126;2023-04-06T11:08:46;24.48;;;22.90;;
12908;SDS011;6522;49.622;6.126;2023-04-06T11:11:33;23.83;;;22.37;;
12908;SDS011;6522;49.622;6.126;2023-04-06T11:14:20;23.83;;;22.30;;
12908;SDS011;6522;49.622;6.126;2023-04-06T11:17:07;21.92;;;20.23;;
12908;SDS011;6522;49.622;6.126;2023-04-06T11:19:54;24.33;;;22.80;;
12908;SDS011;6522;49.622;6.126;2023-04-06T11:22:53;24.33;;;22.83;;
12908;SDS011;6522;49.622;6.126;2023-04-06T11:25:37;23.35;;;21.92;;
12908;SDS011;6522;49.622;6.126;2023-04-06T11:28:24;23.00;;;21.60;;
12908;SDS011;6522;49.622;6.126;2023-04-06T11:31:11;22.50;;;21.20;;
12908;SDS011;6522;49.622;6.126;2023-04-06T11:33:57;24.33;;;22.83;;
12908;SDS011;6522;49.622;6.126;2023-04-06T11:36:45;20.73;;;19.33;;
12908;SDS011;6522;49.622;6.126;2023-04-06T11:39:31;23.77;;;21.92;;
12908;SDS011;6522;49.622;6.126;2023-04-06T11:42:21;25.45;;;23.65;;
12908;SDS011;6522;49.622;6.126;2023-04-06T11:45:07;20.65;;;19.25;;
12908;SDS011;6522;49.622;6.126;2023-04-06T11:47:58;21.95;;;20.62;;
12908;SDS011;6522;49.622;6.126;2023-04-06T11:50:46;21.75;;;20.20;;
12908;SDS011;6522;49.622;6.126;2023-04-06T11:53:31;21.60;;;20.30;;
12908;SDS011;6522;49.622;6.126;2023-04-06T11:56:30;21.80;;;20.05;;
12908;SDS011;6522;49.622;6.126;2023-04-06T11:59:17;19.98;;;18.67;;
12908;SDS011;6522;49.622;6.126;2023-04-06T12:02:04;19.98;;;18.20;;
12908;SDS011;6522;49.622;6.126;2023-04-06T12:04:50;16.90;;;15.65;;
12908;SDS011;6522;49.622;6.126;2023-04-06T12:07:37;19.50;;;18.12;;
12908;SDS011;6522;49.622;6.126;2023-04-06T12:10:24;18.58;;;17.48;;
12908;SDS011;6522;49.622;6.126;2023-04-06T12:13:10;20.40;;;19.10;;
12908;SDS011;6522;49.622;6.126;2023-04-06T12:15:57;19.70;;;18.40;;
12908;SDS011;6522;49.622;6.126;2023-04-06T12:18:43;20.05;;;18.87;;
12908;SDS011;6522;49.622;6.126;2023-04-06T12:21:31;16.87;;;15.88;;
12908;SDS011;6522;49.622;6.126;2023-04-06T12:24:17;17.87;;;16.87;;
12908;SDS011;6522;49.622;6.126;2023-04-06T12:27:04;17.75;;;16.65;;
12908;SDS011;6522;49.622;6.126;2023-04-06T12:29:51;17.92;;;16.80;;
12908;SDS011;6522;49.622;6.126;2023-04-06T12:32:38;18.48;;;17.27;;
12908;SDS011;6522;49.622;6.126;2023-04-06T12:35:24;16.90;;;15.75;;
12908;SDS011;6522;49.622;6.126;2023-04-06T12:38:11;15.20;;;14.20;;
12908;SDS011;6522;49.622;6.126;2023-04-06T12:40:58;14.77;;;13.77;;
12908;SDS011;6522;49.622;6.126;2023-04-06T12:43:45;15.10;;;14.18;;
12908;SDS011;6522;49.622;6.126;2023-04-06T12:46:32;13.02;;;12.23;;
12908;SDS011;6522;49.622;6.126;2023-04-06T12:49:19;13.95;;;12.55;;
12908;SDS011;6522;49.622;6.126;2023-04-06T12:52:06;12.37;;;11.57;;
12908;SDS011;6522;49.622;6.126;2023-04-06T12:54:52;14.60;;;13.60;;
12908;SDS011;6522;49.622;6.126;2023-04-06T12:57:39;14.57;;;13.68;;
12908;SDS011;6522;49.622;6.126;2023-04-06T13:00:25;12.30;;;11.40;;
12908;SDS011;6522;49.622;6.126;2023-04-06T13:03:12;13.23;;;12.40;;
12908;SDS011;6522;49.622;6.126;2023-04-06T13:05:59;11.55;;;10.85;;
12908;SDS011;6522;49.622;6.126;2023-04-06T13:08:45;12.95;;;12.30;;
12908;SDS011;6522;49.622;6.126;2023-04-06T13:11:32;12.05;;;11.23;;
12908;SDS011;6522;49.622;6.126;2023-04-06T13:14:18;12.73;;;11.82;;
12908;SDS011;6522;49.622;6.126;2023-04-06T13:17:05;12.27;;;11.55;;
12908;SDS011;6522;49.622;6.126;2023-04-06T13:19:51;13.13;;;12.27;;
12908;SDS011;6522;49.622;6.126;2023-04-06T13:22:38;10.70;;;10.00;;
12908;SDS011;6522;49.622;6.126;2023-04-06T13:25:25;13.45;;;12.60;;
12908;SDS011;6522;49.622;6.126;2023-04-06T13:28:11;11.07;;;10.40;;
12908;SDS011;6522;49.622;6.126;2023-04-06T13:30:59;10.63;;;10.02;;
12908;SDS011;6522;49.622;6.126;2023-04-06T13:33:45;11.52;;;10.55;;
12908;SDS011;6522;49.622;6.126;2023-04-06T13:36:32;10.30;;;9.60;;
12908;SDS011;6522;49.622;6.126;2023-04-06T13:39:18;12.98;;;12.07;;
12908;SDS011;6522;49.622;6.126;2023-04-06T13:42:05;12.55;;;11.55;;
12908;SDS011;6522;49.622;6.126;2023-04-06T13:44:52;11.93;;;10.73;;
12908;SDS011;6522;49.622;6.126;2023-04-06T13:47:38;11.57;;;10.68;;
12908;SDS011;6522;49.622;6.126;2023-04-06T13:50:25;10.25;;;9.40;;
12908;SDS011;6522;49.622;6.126;2023-04-06T13:53:11;11.02;;;10.10;;
12908;SDS011;6522;49.622;6.126;2023-04-06T13:55:58;11.77;;;10.65;;
12908;SDS011;6522;49.622;6.126;2023-04-06T13:58:45;10.38;;;9.57;;
12908;SDS011;6522;49.622;6.126;2023-04-06T14:01:32;10.82;;;9.93;;
12908;SDS011;6522;49.622;6.126;2023-04-06T14:04:19;15.25;;;8.95;;
12908;SDS011;6522;49.622;6.126;2023-04-06T14:07:06;12.32;;;11.45;;
12908;SDS011;6522;49.622;6.126;2023-04-06T14:09:55;12.40;;;11.43;;
12908;SDS011;6522;49.622;6.126;2023-04-06T14:12:42;13.52;;;12.52;;
12908;SDS011;6522;49.622;6.126;2023-04-06T14:15:28;12.20;;;11.20;;
12908;SDS011;6522;49.622;6.126;2023-04-06T14:18:15;11.75;;;10.52;;
12908;SDS011;6522;49.622;6.126;2023-04-06T14:21:02;11.68;;;10.63;;
12908;SDS011;6522;49.622;6.126;2023-04-06T14:23:48;11.50;;;10.60;;
12908;SDS011;6522;49.622;6.126;2023-04-06T14:26:35;11.40;;;10.50;;
12908;SDS011;6522;49.622;6.126;2023-04-06T14:29:22;12.93;;;11.75;;
12908;SDS011;6522;49.622;6.126;2023-04-06T14:32:08;12.37;;;11.45;;
12908;SDS011;6522;49.622;6.126;2023-04-06T14:34:55;12.43;;;11.27;;
12908;SDS011;6522;49.622;6.126;2023-04-06T14:37:42;11.55;;;10.45;;
12908;SDS011;6522;49.622;6.126;2023-04-06T14:40:28;12.32;;;11.12;;
12908;SDS011;6522;49.622;6.126;2023-04-06T14:43:15;12.10;;;10.80;;
12908;SDS011;6522;49.622;6.126;2023-04-06T14:46:02;12.25;;;11.25;;
12908;SDS011;6522;49.622;6.126;2023-04-06T14:48:48;12.32;;;11.12;;
12908;SDS011;6522;49.622;6.126;2023-04-06T14:51:35;11.50;;;10.57;;
12908;SDS011;6522;49.622;6.126;2023-04-06T14:54:22;11.52;;;10.45;;
12908;SDS011;6522;49.622;6.126;2023-04-06T14:57:09;11.63;;;10.43;;
12908;SDS011;6522;49.622;6.126;2023-04-06T14:59:56;11.40;;;10.30;;
12908;SDS011;6522;49.622;6.126;2023-04-06T15:02:43;12.00;;;10.80;;
12908;SDS011;6522;49.622;6.126;2023-04-06T15:05:30;11.93;;;10.45;;
12908;SDS011;6522;49.622;6.126;2023-04-06T15:08:17;12.25;;;11.02;;
12908;SDS011;6522;49.622;6.126;2023-04-06T15:11:03;15.90;;;12.00;;
12908;SDS011;6522;49.622;6.126;2023-04-06T15:13:50;13.15;;;11.60;;
12908;SDS011;6522;49.622;6.126;2023-04-06T15:16:37;12.30;;;11.10;;
12908;SDS011;6522;49.622;6.126;2023-04-06T15:19:24;11.38;;;10.25;;
12908;SDS011;6522;49.622;6.126;2023-04-06T15:22:11;12.50;;;10.77;;
12908;SDS011;6522;49.622;6.126;2023-04-06T15:24:57;13.45;;;12.10;;
12908;SDS011;6522;49.622;6.126;2023-04-06T15:27:44;11.05;;;10.05;;
12908;SDS011;6522;49.622;6.126;2023-04-06T15:30:30;10.10;;;9.07;;
12908;SDS011;6522;49.622;6.126;2023-04-06T15:33:19;12.05;;;10.73;;
12908;SDS011;6522;49.622;6.126;2023-04-06T15:36:06;13.30;;;10.13;;
12908;SDS011;6522;49.622;6.126;2023-04-06T15:38:50;11.93;;;10.77;;
12908;SDS011;6522;49.622;6.126;2023-04-06T15:41:37;10.63;;;9.52;;
12908;SDS011;6522;49.622;6.126;2023-04-06T15:44:24;11.52;;;10.30;;
12908;SDS011;6522;49.622;6.126;2023-04-06T15:47:11;11.95;;;10.52;;
12908;SDS011;6522;49.622;6.126;2023-04-06T15:49:57;12.37;;;10.48;;
12908;SDS011;6522;49.622;6.126;2023-04-06T15:52:44;14.73;;;11.00;;
12908;SDS011;6522;49.622;6.126;2023-04-06T15:55:31;11.48;;;9.65;;
12908;SDS011;6522;49.622;6.126;2023-04-06T15:58:17;10.95;;;9.88;;
12908;SDS011;6522;49.622;6.126;2023-04-06T16:01:11;13.77;;;10.90;;
12908;SDS011;6522;49.622;6.126;2023-04-06T16:03:57;15.05;;;10.32;;
12908;SDS011;6522;49.622;6.126;2023-04-06T16:06:44;13.85;;;9.35;;
12908;SDS011;6522;49.622;6.126;2023-04-06T16:09:31;11.48;;;10.27;;
12908;SDS011;6522;49.622;6.126;2023-04-06T16:12:18;11.30;;;10.10;;
12908;SDS011;6522;49.622;6.126;2023-04-06T16:15:05;11.60;;;10.45;;
12908;SDS011;6522;49.622;6.126;2023-04-06T16:17:52;10.50;;;8.45;;
12908;SDS011;6522;49.622;6.126;2023-04-06T16:20:38;15.65;;;11.52;;
12908;SDS011;6522;49.622;6.126;2023-04-06T16:23:25;12.88;;;10.25;;
12908;SDS011;6522;49.622;6.126;2023-04-06T16:26:16;15.50;;;11.05;;
12908;SDS011;6522;49.622;6.126;2023-04-06T16:29:02;13.48;;;11.90;;
12908;SDS011;6522;49.622;6.126;2023-04-06T16:31:48;12.73;;;10.85;;
12908;SDS011;6522;49.622;6.126;2023-04-06T16:34:36;13.50;;;11.27;;